Time;durP1;ratioP1;P1;durP2;ratioP2;P2;SDS_P1;SDS_P2;PMS_P1;PMS_P2;Temp;Humidity;BMP_temperature;BMP_pressure;BME280_temperature;BME280_humidity;BME280_pressure;Samples;Min_cycle;Max_cycle;Signal;HPM_P1;HPM_P2
2022/08/01 00:00:56;;;;;;;0.10;0.10;;;19.20;91.20;;;20.42;78.54;101634.25;2046942;28;20676;-86
2022/08/01 00:01:59;;;;;;;0.13;0.13;;;19.20;91.30;;;20.43;78.63;101637.81;2049234;28;20430;-85
2022/08/01 00:03:04;;;;;;;0.10;0.10;;;19.20;91.30;;;20.41;78.47;101635.44;2059161;28;20956;-85
2022/08/01 00:04:06;;;;;;;0.20;0.20;;;19.20;91.20;;;20.41;78.60;101629.16;2046932;28;20055;-85
2022/08/01 00:05:10;;;;;;;0.20;0.20;;;19.20;91.30;;;20.40;78.67;101633.88;2050141;28;20055;-85
2022/08/01 00:06:13;;;;;;;0.10;0.10;;;19.20;91.20;;;20.41;78.30;101631.91;2046759;28;20574;-85
2022/08/01 00:07:16;;;;;;;0.20;0.20;;;19.20;91.30;;;20.41;78.55;101631.91;2057059;28;20078;-85
2022/08/01 00:08:19;;;;;;;0.20;0.20;;;19.20;91.30;;;20.41;78.54;101638.19;2045798;28;20889;-85
2022/08/01 00:09:24;;;;;;;0.20;0.20;;;19.10;91.20;;;20.40;78.31;101636.63;2050675;28;20094;-85
2022/08/01 00:10:26;;;;;;;0.20;0.20;;;19.20;91.20;;;20.39;78.25;101635.03;2066235;28;20053;-85
2022/08/01 00:11:30;;;;;;;0.20;0.20;;;19.20;91.20;;;20.40;78.28;101639.38;2055041;28;20477;-85
2022/08/01 00:12:32;;;;;;;0.20;0.20;;;19.20;91.50;;;20.41;78.18;101632.69;2042042;28;20062;-86
2022/08/01 00:13:36;;;;;;;0.20;0.20;;;19.20;91.20;;;20.36;78.13;101624.84;2043724;28;20050;-86
2022/08/01 00:14:40;;;;;;;0.20;0.20;;;19.20;91.20;;;20.40;78.04;101639.38;2063849;28;20399;-86
2022/08/01 00:15:43;;;;;;;0.10;0.10;;;19.20;91.10;;;20.40;77.99;101633.09;2066214;28;20089;-86
2022/08/01 00:16:56;;;;;;;0.20;0.20;;;19.20;91.10;;;20.38;78.02;101640.91;2062033;28;20162;-85
2022/08/01 00:17:59;;;;;;;0.20;0.20;;;19.20;91.10;;;20.38;78.10;101643.66;2065747;28;20077;-86
2022/08/01 00:19:02;;;;;;;0.17;0.17;;;19.10;91.10;;;20.36;78.13;101641.31;2060398;28;20078;-85
2022/08/01 00:20:11;;;;;;;0.13;0.13;;;19.10;91.10;;;20.35;77.76;101645.22;2064249;28;20061;-85
2022/08/01 00:21:14;;;;;;;0.20;0.20;;;19.10;91.10;;;20.34;78.07;101648.38;2061165;28;20112;-85
2022/08/01 00:22:18;;;;;;;0.20;0.20;;;19.10;91.10;;;20.30;77.75;101644.81;2047448;28;20054;-85
2022/08/01 00:23:20;;;;;;;0.20;0.20;;;19.10;91.10;;;20.31;78.13;101644.41;2050360;28;20114;-86
2022/08/01 00:24:25;;;;;;;0.10;0.10;;;19.10;91.10;;;20.30;77.95;101648.34;2061055;28;20050;-86
2022/08/01 00:25:28;;;;;;;0.10;0.10;;;19.10;91.10;;;20.32;78.04;101648.75;2058398;28;20169;-86
2022/08/01 00:26:36;;;;;;;0.10;0.10;;;19.10;91.00;;;20.33;77.83;101641.28;2056714;28;20121;-86
2022/08/01 00:27:39;;;;;;;0.10;0.10;;;19.10;91.00;;;20.33;78.25;101655.00;2051726;28;20054;-86
2022/08/01 00:28:42;;;;;;;0.20;0.20;;;19.10;91.10;;;20.29;77.80;101656.97;2041839;28;20067;-86
2022/08/01 00:29:45;;;;;;;0.10;0.10;;;19.10;91.00;;;20.31;78.00;101660.09;2063316;28;20069;-86
2022/08/01 00:31:09;;;;;;;0.20;0.20;;;19.10;91.00;;;20.28;77.63;101658.13;2063520;28;20061;-86
2022/08/01 00:32:11;;;;;;;0.20;0.20;;;19.00;91.00;;;20.30;77.83;101658.50;2055458;28;20058;-85
2022/08/01 00:33:15;;;;;;;0.10;0.10;;;19.00;91.00;;;20.28;77.70;101661.66;2040006;28;20077;-86
2022/08/01 00:34:18;;;;;;;0.20;0.20;;;19.00;90.90;;;20.24;77.67;101654.59;2047597;28;20055;-86
2022/08/01 00:35:21;;;;;;;0.20;0.20;;;19.00;90.90;;;20.24;77.45;101660.88;2056261;28;20047;-86
2022/08/01 00:36:24;;;;;;;0.30;0.30;;;19.00;90.90;;;20.24;77.66;101662.81;2064218;28;20089;-85
2022/08/01 00:37:28;;;;;;;0.25;0.25;;;19.00;90.90;;;20.23;77.56;101658.50;2055910;28;20059;-85
2022/08/01 00:38:31;;;;;;;0.20;0.20;;;18.90;90.80;;;20.19;77.62;101658.50;2057001;28;20593;-86
2022/08/01 00:39:35;;;;;;;0.20;0.20;;;18.90;90.80;;;20.14;77.67;101658.06;2061907;28;20046;-85
2022/08/01 00:40:38;;;;;;;0.20;0.20;;;18.90;90.80;;;20.15;77.51;101662.38;2064195;28;20498;-86
2022/08/01 00:41:41;;;;;;;0.20;0.20;;;18.90;90.80;;;20.08;77.70;101646.66;2056856;28;20081;-86
2022/08/01 00:42:44;;;;;;;0.20;0.20;;;18.90;90.90;;;20.12;77.71;101652.16;2063107;28;20051;-85
2022/08/01 00:43:47;;;;;;;0.20;0.20;;;18.90;90.90;;;20.09;78.00;101652.94;2058112;28;20046;-86
2022/08/01 00:44:50;;;;;;;0.20;0.20;;;18.90;90.90;;;20.09;77.73;101663.91;2042733;28;20066;-85
2022/08/01 00:45:55;;;;;;;0.20;0.20;;;18.90;90.90;;;20.06;77.95;101659.19;2048660;28;20055;-86
2022/08/01 00:46:57;;;;;;;0.20;0.20;;;18.90;90.90;;;20.04;77.93;101661.53;2054719;28;20063;-86
2022/08/01 00:48:01;;;;;;;0.20;0.20;;;18.80;90.90;;;20.02;77.95;101653.69;2040755;28;20692;-85
2022/08/01 00:49:03;;;;;;;0.30;0.30;;;18.90;90.90;;;20.00;78.16;101660.72;2048647;28;20373;-86
2022/08/01 00:50:12;;;;;;;0.20;0.20;;;18.80;90.90;;;19.98;78.01;101654.84;2055682;28;20057;-86
2022/08/01 00:51:18;;;;;;;0.30;0.30;;;18.80;90.90;;;19.97;77.94;101662.28;2063769;28;20062;-86
2022/08/01 00:52:21;;;;;;;0.20;0.20;;;18.70;90.90;;;19.98;77.98;101660.31;2060878;28;20061;-86
2022/08/01 00:53:25;;;;;;;0.20;0.20;;;18.80;91.00;;;19.96;77.88;101655.22;2053397;28;20058;-86
2022/08/01 00:54:28;;;;;;;0.30;0.30;;;18.80;91.00;;;19.96;77.99;101657.19;2062362;28;20490;-86
2022/08/01 00:55:33;;;;;;;0.28;0.28;;;18.80;91.00;;;19.94;77.98;101652.06;2063506;28;20054;-86
2022/08/01 00:56:36;;;;;;;0.30;0.30;;;18.70;91.00;;;19.93;78.12;101650.50;2060792;28;20582;-87
2022/08/01 00:57:40;;;;;;;0.30;0.30;;;18.70;91.00;;;19.95;77.84;101661.06;2064471;28;20057;-87
2022/08/01 00:59:05;;;;;;;0.30;0.30;;;18.70;91.00;;;19.92;77.94;101653.59;2058909;28;20542;-86
2022/08/01 01:00:10;;;;;;;0.20;0.20;;;18.60;91.10;;;19.92;77.94;101656.34;2056934;28;20442;-86
2022/08/01 01:01:14;;;;;;;0.25;0.25;;;18.60;91.10;;;19.88;77.72;101658.31;2063797;28;20046;-86
2022/08/01 01:02:17;;;;;;;0.20;0.20;;;18.60;91.00;;;19.88;77.63;101666.53;2065158;28;20054;-85
2022/08/01 01:03:23;;;;;;;0.30;0.30;;;18.60;91.00;;;19.78;77.85;101650.78;2047710;28;20043;-86
2022/08/01 01:04:47;;;;;;;0.20;0.20;;;18.50;91.00;;;19.82;77.47;101660.59;2051799;28;20109;-86
2022/08/01 01:06:05;;;;;;;0.20;0.20;;;18.40;91.00;;;19.78;77.58;101659.00;2047596;28;20310;-87
2022/08/01 01:07:22;;;;;;;0.20;0.20;;;18.50;91.10;;;19.78;77.48;101664.50;2055002;28;20058;-86
2022/08/01 01:08:40;;;;;;;0.30;0.30;;;18.40;91.10;;;19.76;77.67;101664.09;2054257;28;20430;-86
2022/08/01 01:10:00;;;;;;;0.20;0.20;;;18.40;91.10;;;19.76;77.60;101669.56;2059624;28;20101;-87
2022/08/01 01:11:10;;;;;;;;;;;18.40;91.10;;;19.75;77.25;101668.00;2054711;28;20043;-88
2022/08/01 01:12:24;;;;;;;0.20;0.20;;;18.40;91.20;;;19.76;77.05;101672.31;2050741;28;20342;-87
2022/08/01 01:13:35;;;;;;;0.20;0.20;;;18.30;91.10;;;19.72;77.43;101677.00;2055684;28;20137;-86
2022/08/01 01:15:03;;;;;;;0.20;0.20;;;18.30;91.20;;;19.68;77.75;101667.97;2065061;28;20061;-86
2022/08/01 01:16:12;;;;;;;0.20;0.20;;;18.30;91.20;;;19.64;77.69;101667.16;2064178;28;20486;-86
2022/08/01 01:17:22;;;;;;;0.20;0.20;;;18.30;91.20;;;19.60;77.99;101660.88;2065189;28;20486;-86
2022/08/01 01:18:50;;;;;;;0.20;0.20;;;18.30;91.20;;;19.60;77.92;101661.66;2048570;29;20109;-86
2022/08/01 01:19:57;;;;;;;0.20;0.20;;;18.30;91.50;;;19.61;78.08;101665.19;2055143;28;20517;-87
2022/08/01 01:21:14;;;;;;;0.17;0.17;;;18.30;91.20;;;19.57;78.00;101658.91;2071427;28;20057;-87
2022/08/01 01:22:37;;;;;;;0.10;0.10;;;18.30;91.30;;;19.61;78.14;101668.72;2065191;28;20058;-86
2022/08/01 01:24:00;;;;;;;0.20;0.20;;;18.30;91.30;;;19.59;78.14;101664.75;2058855;28;20043;-86
2022/08/01 01:25:19;;;;;;;0.20;0.20;;;18.30;91.40;;;19.58;78.49;101660.47;2059767;28;20061;-86
2022/08/01 01:26:40;;;;;;;0.30;0.30;;;18.30;91.40;;;19.60;78.28;101663.63;2059293;28;20054;-86
2022/08/01 01:27:57;;;;;;;0.20;0.20;;;18.30;91.40;;;19.60;78.19;101674.56;2063276;28;20050;-87
2022/08/01 01:29:14;;;;;;;0.20;0.20;;;18.30;91.50;;;19.59;78.37;101668.31;2062121;28;20073;-86
2022/08/01 01:30:17;;;;;;;0.20;0.20;;;18.30;91.40;;;19.61;78.26;101662.44;2054992;28;20427;-87
2022/08/01 01:31:22;;;;;;;0.20;0.20;;;18.30;91.50;;;19.61;78.29;101659.69;2066295;28;20042;-87
2022/08/01 01:32:33;;;;;;;0.20;0.20;;;18.30;91.50;;;19.62;78.35;101667.53;2055998;28;20125;-86
2022/08/01 01:33:40;;;;;;;0.20;0.20;;;18.20;91.50;;;19.63;78.16;101665.59;2054987;28;20185;-86
2022/08/01 01:34:53;;;;;;;0.20;0.20;;;18.30;91.50;;;19.60;78.26;101663.63;2048049;28;20511;-86
2022/08/01 01:36:01;;;;;;;0.20;0.20;;;18.30;91.50;;;19.60;78.14;101669.09;2057844;28;20035;-87
2022/08/01 01:37:14;;;;;;;0.20;0.20;;;18.30;91.50;;;19.59;78.63;101672.97;2063795;28;20047;-86
2022/08/01 01:38:23;;;;;;;0.20;0.20;;;18.30;91.60;;;19.58;78.72;101668.69;2064943;28;20520;-86
2022/08/01 01:39:29;;;;;;;0.20;0.20;;;18.30;91.60;;;19.64;78.72;101678.13;2063831;28;20046;-91
2022/08/01 01:40:33;;;;;;;0.20;0.20;;;18.30;91.60;;;19.61;78.66;101670.66;2064731;28;20045;-89
2022/08/01 01:41:38;;;;;;;0.20;0.20;;;18.30;91.50;;;19.62;78.33;101674.97;2048720;28;20082;-89
2022/08/01 01:42:44;;;;;;;0.20;0.20;;;18.40;91.80;;;19.63;78.64;101680.06;2049047;28;20499;-90
2022/08/01 01:43:47;;;;;;;0.20;0.20;;;18.40;91.50;;;19.63;78.39;101682.78;2069772;28;20072;-90
2022/08/01 01:44:54;;;;;;;0.10;0.10;;;18.40;91.40;;;19.64;78.54;101684.38;2072633;28;20132;-90
2022/08/01 01:45:56;;;;;;;0.20;0.20;;;18.40;91.40;;;19.63;78.29;101679.28;2058740;28;20050;-89
2022/08/01 01:47:01;;;;;;;0.20;0.20;;;18.40;91.40;;;19.66;78.35;101684.00;2053990;28;20055;-88
2022/08/01 01:48:07;;;;;;;0.20;0.20;;;18.40;91.30;;;19.65;78.18;101682.41;2056883;28;20487;-86
2022/08/01 01:49:12;;;;;;;0.20;0.20;;;18.40;91.30;;;19.66;78.24;101684.00;2066812;28;20136;-87
2022/08/01 01:50:17;;;;;;;0.20;0.20;;;18.40;91.20;;;19.66;77.95;101681.25;2058899;28;20173;-87
2022/08/01 01:51:23;;;;;;;0.13;0.13;;;18.40;91.20;;;19.66;77.94;101692.22;2059333;28;20034;-87
2022/08/01 01:52:27;;;;;;;0.20;0.20;;;18.40;91.10;;;19.65;77.86;101691.44;2061459;28;20069;-86
2022/08/01 01:53:34;;;;;;;0.20;0.20;;;18.40;91.10;;;19.62;77.81;101683.97;2064060;28;20097;-87
2022/08/01 01:54:42;;;;;;;0.30;0.30;;;18.40;91.10;;;19.61;77.76;101687.09;2058426;28;20419;-90
2022/08/01 01:55:52;;;;;;;0.20;0.20;;;18.40;91.10;;;19.59;77.84;101695.69;2056487;28;20054;-90
2022/08/01 01:56:58;;;;;;;;;;;18.40;91.00;;;19.64;77.65;101691.81;2066604;28;20050;-90
2022/08/01 01:58:02;;;;;;;0.20;0.20;;;18.30;91.00;;;19.64;77.48;101691.81;2063842;28;19922;-90
2022/08/01 01:59:04;;;;;;;0.30;0.30;;;18.30;91.00;;;19.60;77.52;101696.50;2057195;28;20054;-89
2022/08/01 02:00:13;;;;;;;0.20;0.20;;;18.30;91.00;;;19.58;77.73;101696.06;2063634;28;20109;-89
2022/08/01 02:01:17;;;;;;;0.20;0.20;;;18.40;91.00;;;19.55;77.50;101688.63;2064265;28;20529;-90
2022/08/01 02:02:42;;;;;;;0.20;0.20;;;18.30;91.00;;;19.57;77.50;101692.53;2063479;28;20498;-90
2022/08/01 02:03:46;;;;;;;0.10;0.10;;;18.30;91.00;;;19.57;77.31;101694.53;2057292;28;20081;-90
2022/08/01 02:04:49;;;;;;;0.20;0.20;;;18.30;91.00;;;19.56;77.49;101695.66;2056453;28;20482;-89
2022/08/01 02:05:54;;;;;;;0.20;0.20;;;18.20;91.00;;;19.53;77.58;101696.44;2047610;28;20121;-90
2022/08/01 02:06:59;;;;;;;0.20;0.20;;;18.20;91.00;;;19.55;77.42;101700.34;2050181;28;20575;-90
2022/08/01 02:08:05;;;;;;;0.20;0.20;;;18.20;91.10;;;19.52;77.36;101700.34;2060086;28;20051;-90
2022/08/01 02:09:08;;;;;;;0.10;0.10;;;18.10;91.00;;;19.56;77.22;101706.63;2053858;28;20059;-90
2022/08/01 02:10:16;;;;;;;0.20;0.20;;;18.20;91.10;;;19.56;77.51;101701.16;2050636;28;20054;-89
2022/08/01 02:11:21;;;;;;;0.20;0.20;;;18.10;91.20;;;19.54;77.65;101698.00;2065902;28;20133;-88
2022/08/01 02:12:25;;;;;;;0.20;0.20;;;18.20;91.20;;;19.55;77.69;101705.06;2065180;28;20100;-89
2022/08/01 02:13:28;;;;;;;0.20;0.20;;;18.10;91.20;;;19.55;77.72;101699.59;2055491;28;20058;-89
2022/08/01 02:14:35;;;;;;;0.10;0.10;;;18.10;91.20;;;19.54;77.78;101698.00;2048332;28;20066;-90
2022/08/01 02:15:40;;;;;;;0.13;0.13;;;18.10;91.20;;;19.50;77.81;101697.97;2047748;28;20052;-89
2022/08/01 02:17:03;;;;;;;0.20;0.20;;;18.20;91.30;;;19.55;77.47;101699.59;2059061;28;20054;-89
2022/08/01 02:18:08;;;;;;;0.20;0.20;;;18.10;91.20;;;19.51;77.72;101698.75;2064835;28;20468;-89
2022/08/01 02:19:12;;;;;;;0.15;0.15;;;18.10;91.20;;;19.53;77.50;101702.69;2063831;28;20132;-89
2022/08/01 02:20:16;;;;;;;0.10;0.10;;;18.10;91.20;;;19.51;77.30;101705.03;2056627;28;20046;-90
2022/08/01 02:21:31;;;;;;;0.20;0.20;;;18.10;91.20;;;19.53;77.34;101702.69;2055081;28;20058;-89
2022/08/01 02:22:40;;;;;;;0.20;0.20;;;18.10;91.20;;;19.54;77.15;101704.25;2051003;28;20427;-89
2022/08/01 02:23:45;;;;;;;0.20;0.20;;;18.10;91.10;;;19.53;77.34;101712.88;2055402;28;20086;-88
2022/08/01 02:25:01;;;;;;;0.20;0.20;;;18.10;91.10;;;19.55;76.69;101707.81;2059899;28;20051;-89
2022/08/01 02:26:09;;;;;;;0.15;0.15;;;18.10;91.10;;;19.55;76.98;101705.81;2064154;28;20058;-89
2022/08/01 02:27:22;;;;;;;0.10;0.10;;;18.10;91.10;;;19.51;77.01;101705.03;2064773;28;20072;-90
2022/08/01 02:28:29;;;;;;;0.10;0.10;;;18.10;91.10;;;19.53;77.05;101707.38;2057141;28;20051;-90
2022/08/01 02:29:38;;;;;;;0.10;0.10;;;18.10;91.00;;;19.55;76.51;101705.06;2056854;28;20511;-89
2022/08/01 02:30:48;;;;;;;0.20;0.20;;;18.10;91.00;;;19.57;76.91;101705.47;2064513;28;20050;-89
2022/08/01 02:31:55;;;;;;;0.17;0.17;;;18.10;91.00;;;19.54;76.81;101700.72;2063567;28;20054;-88
2022/08/01 02:33:05;;;;;;;0.10;0.10;;;18.10;91.00;;;19.54;76.74;101701.53;2058860;28;20065;-90
2022/08/01 02:34:19;;;;;;;0.20;0.20;;;18.10;90.90;;;19.57;76.73;101705.47;2063009;28;20046;-90
2022/08/01 02:35:27;;;;;;;0.20;0.20;;;18.10;90.90;;;19.58;76.67;101705.09;2058022;28;20499;-88
2022/08/01 02:36:36;;;;;;;0.10;0.10;;;18.20;90.90;;;19.58;76.47;101707.03;2049113;28;20078;-89
2022/08/01 02:37:41;;;;;;;0.20;0.20;;;18.20;90.80;;;19.54;76.46;101704.25;2047872;28;20098;-90
2022/08/01 02:38:50;;;;;;;0.20;0.20;;;18.20;90.80;;;19.59;76.30;101708.59;2050622;28;20059;-90
2022/08/01 02:39:54;;;;;;;0.20;0.20;;;18.20;90.70;;;19.56;76.20;101701.16;2048222;28;20055;-90
2022/08/01 02:41:03;;;;;;;0.20;0.20;;;18.10;90.70;;;19.58;76.34;101704.28;2058080;28;20518;-89
2022/08/01 02:42:12;;;;;;;0.20;0.20;;;18.10;90.70;;;19.58;76.21;101713.31;2058820;28;20039;-89
2022/08/01 02:43:20;;;;;;;0.10;0.10;;;18.20;90.70;;;19.57;76.01;101719.19;2060234;28;20420;-89
2022/08/01 02:44:29;;;;;;;0.10;0.10;;;18.10;90.60;;;19.56;76.04;101712.91;2061727;28;20125;-90
2022/08/01 02:45:34;;;;;;;0.20;0.20;;;18.20;90.60;;;19.58;76.19;101716.06;2064168;28;20050;-91
2022/08/01 02:46:46;;;;;;;0.20;0.20;;;18.10;90.60;;;19.56;76.05;101704.69;2050076;28;20035;-90
2022/08/01 02:47:51;;;;;;;0.20;0.20;;;18.20;90.60;;;19.59;75.98;101712.13;2056831;28;20065;-89
2022/08/01 02:48:59;;;;;;;0.20;0.20;;;18.20;90.60;;;19.60;75.96;101712.94;2058086;28;20085;-89
2022/08/01 02:50:03;;;;;;;0.20;0.20;;;18.10;90.50;;;19.57;75.96;101717.19;2059145;28;20055;-90
2022/08/01 02:51:08;;;;;;;0.10;0.10;;;18.10;90.60;;;19.60;75.89;101724.66;2059924;28;20598;-89
2022/08/01 02:52:15;;;;;;;0.20;0.20;;;18.20;90.50;;;19.59;75.83;101720.34;2056845;28;20050;-90
2022/08/01 02:53:22;;;;;;;0.20;0.20;;;18.20;90.50;;;19.56;76.02;101717.59;2055870;28;20518;-90
2022/08/01 02:54:49;;;;;;;0.20;0.20;;;18.20;90.60;;;19.58;76.06;101718.78;2060650;28;20054;-89
2022/08/01 02:55:54;;;;;;;0.20;0.20;;;18.10;90.50;;;19.61;75.78;101725.44;2056779;28;20054;-90
2022/08/01 02:57:00;;;;;;;0.20;0.20;;;18.10;90.50;;;19.60;75.85;101726.63;2048213;28;20062;-90
2022/08/01 02:58:04;;;;;;;0.20;0.20;;;18.10;90.50;;;19.60;75.82;101723.88;2051886;28;20486;-89
2022/08/01 02:59:14;;;;;;;0.20;0.20;;;18.10;90.50;;;19.58;75.70;101728.97;2064897;28;20054;-88
2022/08/01 03:00:17;;;;;;;0.20;0.20;;;18.10;90.50;;;19.57;75.82;101724.66;2049284;28;21463;-89
2022/08/01 03:01:22;;;;;;;0.10;0.10;;;18.10;90.40;;;19.54;75.69;101725.38;2050454;28;20051;-89
2022/08/01 03:02:31;;;;;;;0.20;0.20;;;18.10;90.40;;;19.53;75.58;101721.09;2055204;28;20110;-89
2022/08/01 03:03:35;;;;;;;0.20;0.20;;;18.10;90.40;;;19.49;75.69;101717.53;2054467;28;20421;-89
2022/08/01 03:04:40;;;;;;;0.10;0.10;;;18.00;90.40;;;19.48;75.47;101719.47;2064705;28;20077;-89
2022/08/01 03:05:46;;;;;;;0.13;0.13;;;18.00;90.40;;;19.46;75.47;101724.53;2063977;28;20064;-89
2022/08/01 03:06:49;;;;;;;0.10;0.10;;;18.00;90.40;;;19.49;75.62;101728.50;2065334;28;20061;-89
2022/08/01 03:07:56;;;;;;;0.10;0.10;;;18.00;90.40;;;19.49;75.48;101739.44;2063240;28;20055;-88
2022/08/01 03:09:08;;;;;;;0.20;0.20;;;17.90;90.40;;;19.48;75.33;101746.06;2055945;28;20051;-88
2022/08/01 03:10:13;;;;;;;0.20;0.20;;;17.90;90.40;;;19.45;75.23;101728.47;2053296;28;20043;-89
2022/08/01 03:11:16;;;;;;;0.20;0.20;;;17.90;90.40;;;19.45;75.25;101741.34;2065803;28;20050;-89
2022/08/01 03:12:25;;;;;;;0.10;0.10;;;17.90;90.40;;;19.46;75.16;101740.19;2067348;28;20069;-89
2022/08/01 03:13:30;;;;;;;0.13;0.13;;;17.90;90.40;;;19.41;75.19;101744.06;2065545;28;20050;-90
2022/08/01 03:14:39;;;;;;;0.10;0.10;;;17.90;90.40;;;19.39;75.14;101740.13;2057195;28;20054;-89
2022/08/01 03:15:44;;;;;;;0.20;0.20;;;17.90;90.30;;;19.36;75.10;101746.38;2058332;28;20075;-90
2022/08/01 03:16:48;;;;;;;0.20;0.20;;;17.90;90.30;;;19.33;75.04;101747.91;2074625;28;20053;-89
2022/08/01 03:17:54;;;;;;;0.13;0.13;;;17.90;90.20;;;19.30;75.29;101741.25;2074140;28;20383;-89
2022/08/01 03:18:59;;;;;;;0.10;0.10;;;17.90;90.20;;;19.31;75.15;101751.00;2066728;28;20050;-90
2022/08/01 03:20:04;;;;;;;0.10;0.10;;;17.80;90.20;;;19.30;75.05;101756.88;2059102;28;20070;-90
2022/08/01 03:21:10;;;;;;;0.10;0.10;;;17.80;90.10;;;19.29;75.06;101753.38;2057671;28;20799;-89
2022/08/01 03:22:14;;;;;;;0.10;0.10;;;17.90;90.10;;;19.25;74.95;101749.75;2058862;28;20414;-89
2022/08/01 03:23:20;;;;;;;0.20;0.20;;;17.90;90.00;;;19.22;75.03;101742.31;2060477;28;20054;-89
2022/08/01 03:24:33;;;;;;;0.10;0.10;;;17.90;89.90;;;19.23;75.11;101749.34;2052069;28;20083;-89
2022/08/01 03:25:40;;;;;;;0.20;0.20;;;17.90;89.80;;;19.21;74.91;101759.91;2050007;28;20051;-89
2022/08/01 03:26:44;;;;;;;0.20;0.20;;;17.90;89.60;;;19.20;74.61;101757.53;2051139;28;20047;-89
2022/08/01 03:28:00;;;;;;;0.10;0.10;;;17.90;90.00;;;19.18;74.53;101765.34;2067172;28;20050;-90
2022/08/01 03:29:06;;;;;;;0.20;0.20;;;17.90;89.30;;;19.16;74.66;101762.19;2065935;28;20061;-89
2022/08/01 03:30:12;;;;;;;0.15;0.15;;;17.90;89.30;;;19.14;74.61;101762.56;2065821;28;20042;-89
2022/08/01 03:31:16;;;;;;;0.10;0.10;;;17.80;89.20;;;19.16;74.56;101762.19;2050066;28;20570;-89
2022/08/01 03:32:22;;;;;;;0.10;0.10;;;17.80;89.10;;;19.14;74.17;101762.56;2058639;28;20054;-89
2022/08/01 03:33:26;;;;;;;0.20;0.20;;;17.80;88.80;;;19.13;74.12;101755.53;2066384;28;20050;-89
2022/08/01 03:34:30;;;;;;;0.20;0.20;;;17.80;88.70;;;19.07;73.78;101750.75;2065739;28;20069;-89
2022/08/01 03:35:37;;;;;;;0.20;0.20;;;17.80;88.50;;;19.05;73.88;101753.06;2058271;28;20070;-88
2022/08/01 03:36:48;;;;;;;0.30;0.30;;;17.70;88.40;;;19.06;73.90;101766.38;2049970;28;20055;-89
2022/08/01 03:37:55;;;;;;;0.10;0.10;;;17.70;88.20;;;19.06;73.71;101758.16;2059511;28;20430;-90
2022/08/01 03:39:21;;;;;;;0.10;0.10;;;17.70;88.20;;;19.03;73.34;101750.72;2058387;28;20073;-89
2022/08/01 03:40:36;;;;;;;0.10;0.10;;;17.70;88.10;;;19.00;73.59;101751.47;2051215;28;20499;-89
2022/08/01 03:41:46;;;;;;;0.20;0.20;;;17.70;88.00;;;19.02;73.59;101762.03;2059434;28;20069;-90
2022/08/01 03:42:55;;;;;;;0.20;0.20;;;17.70;87.90;;;19.00;73.31;101756.16;2065686;28;20053;-89
2022/08/01 03:44:02;;;;;;;0.20;0.20;;;17.70;87.90;;;19.01;73.21;101760.47;2064754;28;20047;-90
2022/08/01 03:45:10;;;;;;;0.20;0.20;;;17.60;87.80;;;19.02;73.22;101765.56;2057156;28;20067;-89
2022/08/01 03:46:24;;;;;;;0.20;0.20;;;17.60;87.70;;;19.02;72.86;101765.56;2052123;28;20084;-89
2022/08/01 03:47:33;;;;;;;0.10;0.10;;;17.70;87.60;;;19.04;72.89;101763.22;2059359;28;20050;-88
2022/08/01 03:48:50;;;;;;;0.20;0.20;;;17.70;87.60;;;19.00;73.03;101765.16;2059815;28;20487;-90
2022/08/01 03:49:54;;;;;;;0.20;0.20;;;17.70;87.50;;;19.03;72.77;101783.56;2050489;28;20110;-90
2022/08/01 03:51:00;;;;;;;0.20;0.20;;;17.60;87.40;;;19.00;72.90;101781.56;2052847;28;20051;-88
2022/08/01 03:52:06;;;;;;;0.10;0.10;;;17.70;87.40;;;19.00;72.99;101778.84;2049060;28;20090;-89
2022/08/01 03:53:12;;;;;;;0.10;0.10;;;17.70;87.30;;;19.00;72.96;101778.84;2049558;28;20419;-90
2022/08/01 03:54:17;;;;;;;0.10;0.10;;;17.60;87.20;;;18.98;72.96;101780.38;2041087;29;20539;-90
2022/08/01 03:55:22;;;;;;;0.10;0.10;;;17.70;87.30;;;18.96;73.05;101772.53;2041208;29;20070;-90
2022/08/01 03:56:26;;;;;;;0.10;0.10;;;17.70;87.10;;;18.94;72.92;101779.53;2049087;28;20050;-90
2022/08/01 03:57:31;;;;;;;0.10;0.10;;;17.70;87.10;;;18.94;72.91;101774.06;2055288;28;20054;-88
2022/08/01 03:58:42;;;;;;;0.10;0.10;;;17.70;87.00;;;18.93;72.95;101773.28;2041905;29;20051;-90
2022/08/01 03:59:46;;;;;;;0.20;0.20;;;17.70;86.80;;;18.91;72.84;101775.63;2038524;29;20447;-90
2022/08/01 04:00:50;;;;;;;0.10;0.10;;;17.60;86.70;;;18.91;72.64;101778.34;2048879;28;20062;-88
2022/08/01 04:01:53;;;;;;;0.20;0.20;;;17.60;86.50;;;18.93;72.46;101777.97;2058173;28;20051;-89
2022/08/01 04:02:57;;;;;;;0.20;0.20;;;17.60;86.60;;;18.95;72.37;101786.59;2048538;28;20047;-89
2022/08/01 04:04:01;;;;;;;0.20;0.20;;;17.60;86.60;;;18.95;72.22;101776.44;2041984;29;20055;-90
2022/08/01 04:05:07;;;;;;;0.20;0.20;;;17.60;86.30;;;18.95;71.93;101792.84;2031812;29;20052;-89
2022/08/01 04:06:10;;;;;;;0.10;0.10;;;17.60;86.20;;;18.91;71.97;101786.56;2036586;28;20052;-90
2022/08/01 04:07:25;;;;;;;0.10;0.10;;;17.60;86.00;;;18.94;71.74;101783.06;2057457;28;20055;-89
2022/08/01 04:08:35;;;;;;;0.20;0.20;;;17.60;86.00;;;18.93;71.60;101781.47;2057650;28;20050;-90
2022/08/01 04:09:39;;;;;;;0.20;0.20;;;17.60;85.90;;;18.95;71.61;101787.38;2040994;29;20083;-90
2022/08/01 04:10:43;;;;;;;0.20;0.20;;;17.60;85.90;;;18.95;71.59;101803.00;2041551;29;20567;-90
2022/08/01 04:11:46;;;;;;;0.20;0.20;;;17.60;85.80;;;18.95;71.57;101803.00;2047736;29;20077;-90
2022/08/01 04:12:49;;;;;;;0.20;0.20;;;17.60;85.80;;;18.95;71.53;101805.75;2031420;29;20056;-89
2022/08/01 04:13:54;;;;;;;0.20;0.20;;;17.60;85.70;;;18.96;71.50;101799.13;2032865;29;20059;-90
2022/08/01 04:14:56;;;;;;;0.20;0.20;;;17.60;85.70;;;18.96;71.40;101805.38;2045952;28;20407;-89
2022/08/01 04:16:00;;;;;;;0.20;0.20;;;17.60;85.70;;;18.99;71.51;101810.13;2049477;29;20140;-89
2022/08/01 04:17:02;;;;;;;0.30;0.30;;;17.60;85.60;;;19.01;71.18;101812.47;2049704;28;20051;-90
2022/08/01 04:18:07;;;;;;;0.20;0.20;;;17.60;85.50;;;19.01;71.25;101802.31;2056772;28;20514;-90
2022/08/01 04:19:11;;;;;;;0.20;0.20;;;17.60;85.40;;;18.99;71.34;101810.13;2057138;28;20097;-89
2022/08/01 04:20:15;;;;;;;0.20;0.20;;;17.70;85.40;;;18.99;70.92;101809.31;2056432;28;20051;-88
2022/08/01 04:21:23;;;;;;;0.20;0.20;;;17.60;85.00;;;18.99;71.03;101803.84;2040350;29;20048;-90
2022/08/01 04:22:30;;;;;;;0.20;0.20;;;17.70;84.90;;;19.03;70.80;101808.19;2043874;28;20047;-90
2022/08/01 04:23:40;;;;;;;0.10;0.10;;;17.60;84.70;;;19.03;70.51;101808.19;2042982;29;20060;-89
2022/08/01 04:24:50;;;;;;;0.20;0.20;;;17.60;84.70;;;19.03;70.30;101812.88;2042252;29;20040;-90
2022/08/01 04:26:03;;;;;;;0.20;0.20;;;17.60;84.50;;;19.03;70.23;101807.41;2042601;29;20056;-89
2022/08/01 04:27:14;;;;;;;0.20;0.20;;;17.50;84.60;;;19.01;70.08;101807.78;2041895;29;20136;-90
2022/08/01 04:28:17;;;;;;;;;;;17.50;84.60;;;19.01;70.25;101807.78;2049930;28;20057;-90
2022/08/01 04:29:22;;;;;;;0.20;0.20;;;17.40;84.20;;;19.03;70.31;101808.19;2040318;29;19922;-89
2022/08/01 04:30:29;;;;;;;0.20;0.20;;;17.40;84.90;;;19.01;70.23;101812.47;2032880;29;20508;-90
2022/08/01 04:31:35;;;;;;;0.13;0.13;;;17.40;85.00;;;18.98;70.34;101813.22;2042936;28;20143;-89
2022/08/01 04:32:39;;;;;;;0.20;0.20;;;17.40;85.10;;;18.93;70.45;101811.59;2049785;29;20058;-88
2022/08/01 04:33:51;;;;;;;0.20;0.20;;;17.40;85.00;;;18.93;70.63;101806.13;2041460;29;20051;-90
2022/08/01 04:35:00;;;;;;;0.20;0.20;;;17.40;85.00;;;18.95;70.55;101809.28;2041544;28;20083;-90
2022/08/01 04:36:07;;;;;;;0.20;0.20;;;17.40;85.10;;;18.94;70.59;101806.91;2033784;29;20501;-89
2022/08/01 04:37:11;;;;;;;0.30;0.30;;;17.40;85.30;;;18.98;70.84;101808.53;2038526;29;20405;-90
2022/08/01 04:38:22;;;;;;;0.20;0.20;;;17.40;85.40;;;18.98;70.96;101813.22;2033256;29;20139;-90
2022/08/01 04:39:30;;;;;;;0.20;0.20;;;17.50;85.60;;;18.98;70.74;101819.47;2036153;29;20134;-90
2022/08/01 04:40:36;;;;;;;0.20;0.20;;;17.50;85.50;;;19.01;70.75;101818.72;2028226;29;20413;-89